Time;durP1;ratioP1;P1;durP2;ratioP2;P2;SDS_P1;SDS_P2;PMS_P1;PMS_P2;Temp;Humidity;BMP_temperature;BMP_pressure;BME280_temperature;BME280_humidity;BME280_pressure;Samples;Min_cycle;Max_cycle;Signal;HPM_P1;HPM_P2
2021/09/23 00:01:56;;;;;;;7.90;4.47;;;;;;;;;;4987122;28;20096;-73
2021/09/23 00:06:47;;;;;;;9.17;5.43;;;;;;;;;;4988060;28;20030;-72
2021/09/23 00:09:12;;;;;;;8.90;4.63;;;;;;;;;;4994779;28;20415;-73
2021/09/23 00:11:37;;;;;;;8.00;4.50;;;;;;;;;;4988179;28;20022;-72
2021/09/23 00:14:03;;;;;;;8.95;5.35;;;;;;;;;;4987839;28;20034;-73
2021/09/23 00:16:28;;;;;;;8.63;4.50;;;;;;;;;;4981601;28;21013;-72
2021/09/23 00:18:53;;;;;;;8.55;4.70;;;;;;;;;;4982948;28;20084;-73
2021/09/23 00:21:24;;;;;;;8.75;4.50;;;;;;;;;;4984941;28;20397;-74
2021/09/23 00:23:50;;;;;;;7.75;4.93;;;;;;;;;;4979153;28;20022;-72
2021/09/23 00:26:15;;;;;;;9.73;5.38;;;;;;;;;;4983623;28;20022;-72
2021/09/23 00:28:43;;;;;;;8.43;4.82;;;;;;;;;;4988279;28;20026;-73
2021/09/23 00:31:08;;;;;;;6.93;4.30;;;;;;;;;;5002996;28;20101;-73
2021/09/23 00:33:33;;;;;;;8.48;4.78;;;;;;;;;;4988109;28;20057;-73
2021/09/23 00:35:59;;;;;;;8.30;4.90;;;;;;;;;;4988258;28;20065;-73
2021/09/23 00:38:24;;;;;;;7.57;4.93;;;;;;;;;;4986506;28;20120;-73
2021/09/23 00:40:49;;;;;;;7.95;4.82;;;;;;;;;;4987235;28;20109;-73
2021/09/23 00:43:14;;;;;;;8.18;5.30;;;;;;;;;;4988937;28;20061;-73
2021/09/23 00:45:39;;;;;;;8.57;5.17;;;;;;;;;;4991234;28;20132;-73
2021/09/23 00:48:05;;;;;;;6.30;4.50;;;;;;;;;;4986785;28;20647;-73
2021/09/23 00:50:30;;;;;;;7.78;4.60;;;;;;;;;;4986934;28;20018;-73
2021/09/23 00:52:56;;;;;;;8.25;4.75;;;;;;;;;;4988035;28;20510;-73
2021/09/23 00:55:21;;;;;;;8.60;5.13;;;;;;;;;;4988433;28;20065;-73
2021/09/23 00:57:46;;;;;;;6.53;4.65;;;;;;;;;;4987798;28;20434;-73
2021/09/23 01:00:13;;;;;;;7.15;4.88;;;;;;;;;;4987835;28;20033;-72
2021/09/23 01:02:38;;;;;;;8.55;5.32;;;;;;;;;;4987569;28;20034;-73
2021/09/23 01:05:04;;;;;;;9.43;5.50;;;;;;;;;;4988245;28;20026;-73
2021/09/23 01:07:29;;;;;;;8.20;4.95;;;;;;;;;;4986922;28;20110;-73
2021/09/23 01:09:55;;;;;;;9.20;4.40;;;;;;;;;;4986407;28;20113;-73
2021/09/23 01:12:21;;;;;;;8.63;4.10;;;;;;;;;;4986569;28;20663;-73
2021/09/23 01:14:47;;;;;;;7.18;4.50;;;;;;;;;;4991349;28;20069;-73
2021/09/23 01:17:13;;;;;;;8.40;4.80;;;;;;;;;;4991543;28;20026;-73
2021/09/23 01:19:39;;;;;;;8.70;5.60;;;;;;;;;;4986619;28;20114;-72
2021/09/23 01:22:05;;;;;;;10.13;4.63;;;;;;;;;;4986750;28;20027;-73
2021/09/23 01:24:30;;;;;;;10.05;4.85;;;;;;;;;;4987747;28;20030;-73
2021/09/23 01:26:56;;;;;;;9.30;5.20;;;;;;;;;;4986493;28;20034;-72
2021/09/23 01:29:24;;;;;;;6.90;4.72;;;;;;;;;;4987454;28;20015;-73
2021/09/23 01:31:50;;;;;;;9.45;4.78;;;;;;;;;;4986902;28;20026;-73
2021/09/23 01:34:15;;;;;;;8.55;5.00;;;;;;;;;;4986953;28;20129;-73
2021/09/23 01:36:40;;;;;;;7.25;4.32;;;;;;;;;;4987022;28;20026;-73
2021/09/23 01:39:06;;;;;;;7.45;4.75;;;;;;;;;;4987183;28;20409;-72
2021/09/23 01:41:31;;;;;;;11.18;6.68;;;;;;;;;;4984670;28;20045;-72
2021/09/23 01:43:56;;;;;;;15.18;8.35;;;;;;;;;;4987343;28;20030;-73
2021/09/23 01:46:22;;;;;;;19.90;11.68;;;;;;;;;;4993167;28;20391;-73
2021/09/23 01:48:47;;;;;;;15.77;9.98;;;;;;;;;;4987173;28;20091;-73
2021/09/23 01:51:12;;;;;;;15.13;9.07;;;;;;;;;;4985274;28;20490;-72
2021/09/23 01:53:37;;;;;;;12.25;8.20;;;;;;;;;;4987151;28;20022;-73
2021/09/23 01:56:03;;;;;;;10.60;6.85;;;;;;;;;;4986898;28;20049;-73
2021/09/23 01:58:28;;;;;;;12.27;6.43;;;;;;;;;;4986568;28;20080;-73
2021/09/23 02:00:53;;;;;;;10.88;6.45;;;;;;;;;;4986799;28;20757;-73
2021/09/23 02:03:19;;;;;;;10.75;6.10;;;;;;;;;;4987154;28;20038;-72
2021/09/23 02:05:44;;;;;;;9.80;6.10;;;;;;;;;;4986403;28;20541;-73
2021/09/23 02:08:09;;;;;;;13.93;6.68;;;;;;;;;;4986521;28;20026;-73
2021/09/23 02:10:34;;;;;;;9.65;6.18;;;;;;;;;;4985816;28;20022;-73
2021/09/23 02:13:00;;;;;;;10.35;5.90;;;;;;;;;;4984693;28;20030;-73
2021/09/23 02:15:25;;;;;;;8.38;5.80;;;;;;;;;;4989441;28;20505;-73
2021/09/23 02:17:50;;;;;;;8.63;6.00;;;;;;;;;;4986651;28;20038;-73
2021/09/23 02:20:15;;;;;;;9.98;5.65;;;;;;;;;;4986839;28;20033;-73
2021/09/23 02:22:41;;;;;;;11.80;5.78;;;;;;;;;;4986176;28;20045;-74
2021/09/23 02:25:06;;;;;;;10.25;5.95;;;;;;;;;;4986673;28;20034;-73
2021/09/23 02:27:32;;;;;;;8.05;5.28;;;;;;;;;;4983676;28;20030;-73
2021/09/23 02:29:57;;;;;;;13.30;5.45;;;;;;;;;;4983459;28;20015;-73
2021/09/23 02:32:22;;;;;;;10.40;5.55;;;;;;;;;;4986612;28;20501;-73
2021/09/23 02:34:47;;;;;;;10.32;5.32;;;;;;;;;;4986080;28;20548;-73
2021/09/23 02:37:13;;;;;;;8.57;5.30;;;;;;;;;;4986464;28;20050;-73
2021/09/23 02:39:38;;;;;;;10.23;6.07;;;;;;;;;;4985390;28;20027;-73
2021/09/23 02:42:03;;;;;;;11.00;5.70;;;;;;;;;;4985788;28;20437;-72
2021/09/23 02:44:29;;;;;;;10.13;5.60;;;;;;;;;;4986746;28;20054;-73
2021/09/23 02:46:54;;;;;;;8.38;5.60;;;;;;;;;;4989496;28;20041;-73
2021/09/23 02:49:19;;;;;;;11.40;6.43;;;;;;;;;;4985829;28;20027;-74
2021/09/23 02:51:44;;;;;;;8.05;5.03;;;;;;;;;;4985915;28;20371;-73
2021/09/23 02:54:10;;;;;;;8.45;5.53;;;;;;;;;;4984090;28;20409;-73
2021/09/23 02:56:35;;;;;;;9.77;5.28;;;;;;;;;;4985625;28;20472;-73
2021/09/23 02:59:00;;;;;;;10.00;5.10;;;;;;;;;;4985952;28;20030;-72
2021/09/23 03:01:25;;;;;;;9.27;5.22;;;;;;;;;;4985605;28;20026;-73
2021/09/23 03:03:50;;;;;;;7.07;4.47;;;;;;;;;;4983059;28;20034;-73
2021/09/23 03:06:16;;;;;;;8.65;5.28;;;;;;;;;;4981061;28;20022;-73
2021/09/23 03:08:41;;;;;;;11.30;5.30;;;;;;;;;;4981125;28;20056;-73
2021/09/23 03:11:07;;;;;;;8.32;5.22;;;;;;;;;;4985590;28;20385;-73
2021/09/23 03:13:32;;;;;;;9.30;5.18;;;;;;;;;;4981781;28;20029;-72
2021/09/23 03:15:58;;;;;;;11.10;5.63;;;;;;;;;;4984171;28;20066;-73
2021/09/23 03:18:23;;;;;;;10.40;5.88;;;;;;;;;;4983197;28;20030;-72
2021/09/23 03:20:48;;;;;;;10.85;6.55;;;;;;;;;;4988528;28;20026;-73
2021/09/23 03:23:14;;;;;;;8.73;4.85;;;;;;;;;;4985005;28;20621;-73
2021/09/23 03:25:40;;;;;;;9.55;5.28;;;;;;;;;;4985714;28;20481;-73
2021/09/23 03:28:05;;;;;;;9.07;4.80;;;;;;;;;;4982672;28;20015;-73
2021/09/23 03:30:30;;;;;;;8.35;5.07;;;;;;;;;;4985228;28;20433;-73
2021/09/23 03:32:56;;;;;;;8.80;5.20;;;;;;;;;;4983860;28;20025;-73
2021/09/23 03:35:21;;;;;;;10.05;6.10;;;;;;;;;;4981801;28;20023;-72
2021/09/23 03:37:47;;;;;;;11.43;6.38;;;;;;;;;;4985248;28;20027;-73
2021/09/23 03:40:12;;;;;;;11.68;6.20;;;;;;;;;;4982088;28;20549;-74
2021/09/23 03:42:38;;;;;;;7.90;4.90;;;;;;;;;;4984410;28;20261;-73
2021/09/23 03:45:06;;;;;;;8.27;5.18;;;;;;;;;;4987461;28;20076;-73
2021/09/23 03:47:32;;;;;;;9.05;4.75;;;;;;;;;;5005192;28;20285;-72
2021/09/23 03:49:57;;;;;;;9.27;5.80;;;;;;;;;;4984709;28;20541;-73
2021/09/23 03:52:22;;;;;;;15.65;6.82;;;;;;;;;;4984076;28;20077;-73
2021/09/23 03:54:47;;;;;;;10.80;6.72;;;;;;;;;;4981954;28;20022;-73
2021/09/23 03:57:13;;;;;;;11.60;6.53;;;;;;;;;;4979025;28;20026;-73
2021/09/23 03:59:38;;;;;;;9.75;5.55;;;;;;;;;;4984977;28;20259;-73
2021/09/23 04:02:04;;;;;;;12.73;8.13;;;;;;;;;;4985424;28;20030;-73
2021/09/23 04:04:29;;;;;;;10.00;5.80;;;;;;;;;;4999977;28;20037;-73
2021/09/23 04:06:54;;;;;;;8.98;5.70;;;;;;;;;;4985538;28;20022;-73
2021/09/23 04:09:19;;;;;;;10.17;5.93;;;;;;;;;;4982426;28;21296;-73
2021/09/23 04:11:45;;;;;;;9.90;5.75;;;;;;;;;;4980515;28;20260;-73
2021/09/23 04:14:10;;;;;;;10.13;5.97;;;;;;;;;;4985336;28;20019;-72
2021/09/23 04:16:35;;;;;;;10.63;5.63;;;;;;;;;;5000924;28;20018;-73
2021/09/23 04:19:01;;;;;;;9.43;5.70;;;;;;;;;;4995643;28;20425;-72
2021/09/23 04:21:26;;;;;;;10.70;6.47;;;;;;;;;;4985293;28;20113;-73
2021/09/23 04:23:51;;;;;;;8.93;5.32;;;;;;;;;;4985136;28;20026;-73
2021/09/23 04:26:17;;;;;;;9.88;6.18;;;;;;;;;;4981635;28;20615;-72
2021/09/23 04:28:42;;;;;;;25.73;12.77;;;;;;;;;;4982981;28;20026;-72
2021/09/23 04:31:08;;;;;;;14.13;6.75;;;;;;;;;;4983172;28;20057;-72
2021/09/23 04:33:33;;;;;;;10.73;7.15;;;;;;;;;;4980981;28;20039;-72
2021/09/23 04:35:58;;;;;;;11.52;6.93;;;;;;;;;;4986654;28;20117;-73
2021/09/23 04:38:23;;;;;;;12.13;6.60;;;;;;;;;;4988724;28;20069;-72
2021/09/23 04:40:49;;;;;;;11.40;6.20;;;;;;;;;;4986309;28;20046;-73
2021/09/23 04:43:15;;;;;;;11.13;7.28;;;;;;;;;;4988712;28;20026;-73
2021/09/23 04:45:40;;;;;;;15.02;7.05;;;;;;;;;;4985677;28;20033;-73
2021/09/23 04:48:05;;;;;;;14.77;6.75;;;;;;;;;;4984096;28;20028;-73
2021/09/23 04:50:31;;;;;;;13.88;7.35;;;;;;;;;;4987903;28;20019;-73
2021/09/23 04:52:56;;;;;;;11.75;6.80;;;;;;;;;;4987612;28;20552;-72
2021/09/23 04:55:22;;;;;;;11.00;6.47;;;;;;;;;;4988396;28;20061;-73
2021/09/23 04:57:47;;;;;;;13.10;6.43;;;;;;;;;;4986479;28;20409;-73
2021/09/23 05:00:13;;;;;;;8.27;5.13;;;;;;;;;;4987488;28;20038;-72
2021/09/23 05:02:38;;;;;;;12.45;5.93;;;;;;;;;;5002194;28;20042;-73
2021/09/23 05:05:03;;;;;;;10.38;6.05;;;;;;;;;;4986818;28;20095;-72
2021/09/23 05:07:28;;;;;;;11.82;6.85;;;;;;;;;;4985443;28;20037;-72
2021/09/23 05:09:54;;;;;;;10.57;7.38;;;;;;;;;;4980831;28;20110;-72
2021/09/23 05:12:19;;;;;;;9.77;6.50;;;;;;;;;;4983138;28;20030;-72
2021/09/23 05:14:44;;;;;;;10.75;6.57;;;;;;;;;;4985633;28;20514;-72
2021/09/23 05:17:09;;;;;;;10.63;6.78;;;;;;;;;;4988591;28;20606;-73
2021/09/23 05:19:35;;;;;;;12.95;7.50;;;;;;;;;;4983111;28;20073;-72
2021/09/23 05:22:00;;;;;;;16.73;8.27;;;;;;;;;;4984640;28;20054;-72
2021/09/23 05:24:25;;;;;;;15.07;9.15;;;;;;;;;;4986318;28;20031;-73
2021/09/23 05:26:50;;;;;;;18.27;9.55;;;;;;;;;;4988430;28;20084;-74
2021/09/23 05:29:16;;;;;;;15.52;8.55;;;;;;;;;;4987164;28;20026;-74
2021/09/23 05:31:41;;;;;;;15.32;8.85;;;;;;;;;;4988612;28;20026;-74
2021/09/23 05:34:06;;;;;;;14.17;7.87;;;;;;;;;;4987798;28;20019;-74
2021/09/23 05:36:31;;;;;;;12.45;7.70;;;;;;;;;;4987696;28;20256;-74
2021/09/23 05:38:59;;;;;;;16.33;7.97;;;;;;;;;;4987085;28;20010;-74
2021/09/23 05:41:24;;;;;;;14.65;8.50;;;;;;;;;;4987381;28;20026;-74
2021/09/23 05:43:49;;;;;;;14.75;8.13;;;;;;;;;;4987563;28;20026;-74
2021/09/23 05:46:16;;;;;;;15.75;7.78;;;;;;;;;;4988398;28;20026;-71
2021/09/23 05:48:41;;;;;;;14.32;7.50;;;;;;;;;;4986161;28;20030;-71
2021/09/23 05:51:06;;;;;;;15.02;7.57;;;;;;;;;;4985886;28;20072;-74
2021/09/23 05:53:31;;;;;;;7.63;3.90;;;;;;;;;;4986707;28;20018;-74
2021/09/23 05:55:57;;;;;;;11.63;6.78;;;;;;;;;;4986520;28;20045;-74
2021/09/23 05:58:22;;;;;;;9.65;5.53;;;;;;;;;;4988789;28;20708;-74
2021/09/23 06:00:47;;;;;;;10.73;6.63;;;;;;;;;;4978278;28;20018;-73
2021/09/23 06:03:12;;;;;;;11.00;6.93;;;;;;;;;;4983573;28;20533;-74
2021/09/23 06:05:38;;;;;;;12.35;5.22;;;;;;;;;;4982618;28;20350;-73
2021/09/23 06:08:03;;;;;;;9.25;5.68;;;;;;;;;;4979564;28;20521;-74
2021/09/23 06:10:29;;;;;;;10.05;5.57;;;;;;;;;;4982805;28;20080;-74
2021/09/23 06:12:54;;;;;;;13.82;6.03;;;;;;;;;;4984325;28;20022;-74
2021/09/23 06:15:19;;;;;;;10.47;6.30;;;;;;;;;;4988869;28;20103;-74
2021/09/23 06:17:45;;;;;;;8.68;5.78;;;;;;;;;;4985925;28;20624;-74
2021/09/23 06:20:11;;;;;;;9.57;6.00;;;;;;;;;;4983184;28;20105;-74
2021/09/23 06:22:36;;;;;;;10.27;5.55;;;;;;;;;;4984062;28;20827;-74
2021/09/23 06:25:01;;;;;;;8.93;5.90;;;;;;;;;;4985419;28;20034;-74
2021/09/23 06:27:27;;;;;;;9.50;5.55;;;;;;;;;;4984008;28;20026;-74
2021/09/23 06:29:52;;;;;;;13.38;6.03;;;;;;;;;;4979593;28;20025;-72
2021/09/23 06:32:17;;;;;;;12.25;5.80;;;;;;;;;;4982367;28;20029;-73
2021/09/23 06:34:43;;;;;;;10.10;5.50;;;;;;;;;;4981700;28;20080;-74
2021/09/23 06:37:08;;;;;;;8.95;5.20;;;;;;;;;;4982630;28;20022;-71
2021/09/23 06:39:33;;;;;;;14.65;5.80;;;;;;;;;;4981050;28;20057;-71
2021/09/23 06:41:58;;;;;;;9.13;5.50;;;;;;;;;;4986761;28;20029;-72
2021/09/23 06:44:24;;;;;;;9.38;5.53;;;;;;;;;;4994334;28;20026;-72
2021/09/23 06:46:49;;;;;;;9.43;5.35;;;;;;;;;;4987558;28;20037;-72
2021/09/23 06:49:15;;;;;;;11.93;4.72;;;;;;;;;;4981507;28;20034;-71
2021/09/23 06:51:40;;;;;;;11.35;5.32;;;;;;;;;;4978065;28;20022;-72
2021/09/23 06:54:06;;;;;;;9.60;5.43;;;;;;;;;;4978681;28;20014;-71
2021/09/23 06:56:31;;;;;;;11.10;4.78;;;;;;;;;;5012503;28;20787;-72
2021/09/23 06:58:56;;;;;;;9.87;5.20;;;;;;;;;;4983073;28;20109;-73
2021/09/23 07:01:21;;;;;;;8.45;4.45;;;;;;;;;;4977086;28;20267;-71
2021/09/23 07:03:46;;;;;;;8.30;4.40;;;;;;;;;;4980050;28;20022;-72
2021/09/23 07:06:12;;;;;;;9.05;4.43;;;;;;;;;;4981953;28;20030;-72
2021/09/23 07:08:37;;;;;;;7.20;4.65;;;;;;;;;;4977692;28;20029;-71
2021/09/23 07:11:03;;;;;;;10.50;4.70;;;;;;;;;;4983508;28;20029;-72
2021/09/23 07:13:30;;;;;;;10.13;4.88;;;;;;;;;;4980091;28;20151;-75
2021/09/23 07:15:56;;;;;;;13.10;4.50;;;;;;;;;;4981447;28;20023;-74
2021/09/23 07:18:21;;;;;;;10.90;4.68;;;;;;;;;;4983009;28;20026;-75
2021/09/23 07:20:46;;;;;;;7.20;4.00;;;;;;;;;;4980271;28;20585;-72
2021/09/23 07:23:11;;;;;;;7.30;3.63;;;;;;;;;;4983143;28;20310;-73
2021/09/23 07:25:37;;;;;;;8.25;3.78;;;;;;;;;;4983408;28;20264;-74
2021/09/23 07:28:02;;;;;;;9.93;3.83;;;;;;;;;;4982304;28;20018;-73
2021/09/23 07:30:27;;;;;;;6.85;4.00;;;;;;;;;;4984342;28;20651;-73
2021/09/23 07:32:53;;;;;;;7.70;4.00;;;;;;;;;;4985223;28;20026;-73
2021/09/23 07:35:18;;;;;;;6.95;3.53;;;;;;;;;;4981598;28;20018;-73
2021/09/23 07:37:43;;;;;;;5.82;3.58;;;;;;;;;;4984560;28;20030;-74
2021/09/23 07:40:10;;;;;;;5.88;3.58;;;;;;;;;;4982515;28;20092;-73
2021/09/23 07:42:35;;;;;;;8.32;3.70;;;;;;;;;;4994121;28;20014;-74
2021/09/23 07:45:01;;;;;;;9.88;3.22;;;;;;;;;;4988518;28;20452;-73
2021/09/23 07:47:26;;;;;;;6.65;3.47;;;;;;;;;;4980874;28;20018;-73
2021/09/23 07:49:51;;;;;;;6.88;3.03;;;;;;;;;;4984838;28;20084;-74
2021/09/23 07:52:17;;;;;;;5.60;3.05;;;;;;;;;;4983750;28;20101;-74
2021/09/23 07:54:42;;;;;;;5.72;3.10;;;;;;;;;;4979659;28;20520;-74
2021/09/23 07:57:07;;;;;;;8.38;2.90;;;;;;;;;;4985201;28;20541;-74
2021/09/23 07:59:33;;;;;;;6.43;2.67;;;;;;;;;;4984579;28;20034;-74
2021/09/23 08:01:58;;;;;;;6.22;2.70;;;;;;;;;;4982226;28;20264;-74
2021/09/23 08:04:23;;;;;;;5.78;2.50;;;;;;;;;;4979998;28;20064;-73
2021/09/23 08:06:49;;;;;;;6.38;2.60;;;;;;;;;;4981299;28;20022;-74
2021/09/23 08:09:14;;;;;;;5.07;2.85;;;;;;;;;;4982334;28;20042;-73
2021/09/23 08:11:40;;;;;;;7.20;2.40;;;;;;;;;;4979196;28;20097;-73
2021/09/23 08:14:06;;;;;;;6.68;2.97;;;;;;;;;;4980994;28;20085;-73
2021/09/23 08:16:31;;;;;;;5.32;1.90;;;;;;;;;;4984716;28;20034;-73
2021/09/23 08:18:56;;;;;;;5.00;1.95;;;;;;;;;;4980585;28;20030;-73
2021/09/23 08:21:22;;;;;;;3.90;2.20;;;;;;;;;;4977095;28;20043;-73
2021/09/23 08:23:47;;;;;;;3.42;1.83;;;;;;;;;;4984695;28;20270;-73
2021/09/23 08:26:12;;;;;;;4.90;2.20;;;;;;;;;;4982015;28;20128;-73
2021/09/23 08:28:37;;;;;;;5.00;1.88;;;;;;;;;;4987177;28;20027;-73
2021/09/23 08:31:03;;;;;;;4.05;1.90;;;;;;;;;;4985164;28;20390;-73
2021/09/23 08:33:28;;;;;;;6.72;2.05;;;;;;;;;;4988210;28;20096;-73
2021/09/23 08:35:54;;;;;;;3.30;1.67;;;;;;;;;;4999514;28;20045;-73
2021/09/23 08:38:20;;;;;;;5.68;2.10;;;;;;;;;;4986540;28;20033;-73
2021/09/23 08:40:49;;;;;;;5.90;2.10;;;;;;;;;;5005347;28;20090;-74
2021/09/23 08:43:15;;;;;;;3.08;1.80;;;;;;;;;;4987750;28;20030;-73
2021/09/23 08:45:40;;;;;;;3.50;1.60;;;;;;;;;;4986677;28;20508;-73
2021/09/23 08:48:06;;;;;;;4.10;2.00;;;;;;;;;;4985002;28;20031;-73
2021/09/23 08:50:32;;;;;;;4.78;2.05;;;;;;;;;;4981644;28;20562;-74
2021/09/23 08:52:58;;;;;;;4.25;1.50;;;;;;;;;;4990427;28;20592;-73
2021/09/23 08:55:24;;;;;;;5.55;1.65;;;;;;;;;;4982804;28;20074;-73
2021/09/23 08:57:50;;;;;;;4.63;1.63;;;;;;;;;;4982979;28;20026;-73
2021/09/23 09:00:15;;;;;;;4.38;1.67;;;;;;;;;;4981334;28;20022;-72
2021/09/23 09:02:40;;;;;;;4.07;1.67;;;;;;;;;;4983983;28;20432;-73
2021/09/23 09:05:06;;;;;;;4.67;1.60;;;;;;;;;;4985140;28;20090;-73
2021/09/23 09:07:31;;;;;;;6.25;1.70;;;;;;;;;;4979649;28;20030;-73
2021/09/23 09:10:04;;;;;;;4.97;2.17;;;;;;;;;;4981711;28;20034;-73
2021/09/23 09:12:30;;;;;;;4.40;1.48;;;;;;;;;;4984250;28;20045;-73
2021/09/23 09:14:55;;;;;;;4.00;1.60;;;;;;;;;;4986562;28;20010;-73
2021/09/23 09:17:21;;;;;;;5.25;1.50;;;;;;;;;;5020433;28;20114;-73
2021/09/23 09:19:46;;;;;;;5.30;1.63;;;;;;;;;;4983373;28;20109;-73
2021/09/23 09:22:12;;;;;;;5.18;1.67;;;;;;;;;;4983963;28;20037;-73
2021/09/23 09:24:54;;;;;;;2.22;1.45;;;;;;;;;;4988832;28;20146;-73
2021/09/23 09:27:29;;;;;;;7.03;1.75;;;;;;;;;;4987433;28;20069;-73
2021/09/23 09:29:55;;;;;;;4.88;1.48;;;;;;;;;;4984446;28;20493;-73
2021/09/23 09:32:33;;;;;;;6.00;1.50;;;;;;;;;;4983661;28;20062;-73
2021/09/23 09:34:59;;;;;;;4.18;1.98;;;;;;;;;;4982006;28;20461;-74
2021/09/23 09:37:24;;;;;;;3.67;1.30;;;;;;;;;;4981522;28;20081;-73
2021/09/23 09:39:55;;;;;;;4.90;1.70;;;;;;;;;;4980260;28;20094;-73
2021/09/23 09:42:20;;;;;;;6.43;1.60;;;;;;;;;;4984804;28;20061;-73
2021/09/23 09:44:52;;;;;;;7.13;1.63;;;;;;;;;;4986884;28;20031;-73
2021/09/23 09:47:24;;;;;;;4.00;1.63;;;;;;;;;;4984005;28;20030;-73
2021/09/23 09:49:50;;;;;;;2.72;1.40;;;;;;;;;;4978133;28;20297;-73
2021/09/23 09:52:26;;;;;;;3.63;1.88;;;;;;;;;;4983728;28;20500;-73
2021/09/23 09:54:58;;;;;;;4.63;2.20;;;;;;;;;;4985887;28;20548;-73
2021/09/23 09:57:25;;;;;;;4.07;1.48;;;;;;;;;;4980756;28;20385;-73
2021/09/23 09:59:50;;;;;;;3.15;1.52;;;;;;;;;;4984886;28;20699;-73
2021/09/23 10:02:15;;;;;;;2.57;1.23;;;;;;;;;;4998776;28;20018;-73
2021/09/23 10:04:41;;;;;;;3.92;1.42;;;;;;;;;;4983642;28;20315;-74
2021/09/23 10:07:08;;;;;;;3.28;1.45;;;;;;;;;;4984453;28;20023;-73
2021/09/23 10:09:35;;;;;;;3.92;1.60;;;;;;;;;;4984314;28;20026;-72
2021/09/23 10:12:00;;;;;;;3.97;1.55;;;;;;;;;;4984017;28;20746;-73
2021/09/23 10:14:26;;;;;;;3.47;1.75;;;;;;;;;;4984304;28;20026;-74
2021/09/23 10:16:51;;;;;;;3.10;1.40;;;;;;;;;;5007222;28;20421;-73
2021/09/23 10:19:17;;;;;;;3.13;1.40;;;;;;;;;;4986131;28;20026;-74
2021/09/23 10:21:42;;;;;;;3.65;1.50;;;;;;;;;;4986022;28;20027;-74
2021/09/23 10:24:08;;;;;;;2.78;1.27;;;;;;;;;;4984578;28;20064;-73
2021/09/23 10:26:35;;;;;;;3.38;1.65;;;;;;;;;;4988051;28;20026;-74
2021/09/23 10:29:01;;;;;;;3.22;1.70;;;;;;;;;;4996436;28;20592;-73
2021/09/23 10:31:34;;;;;;;2.33;1.23;;;;;;;;;;4985146;28;20031;-74
2021/09/23 10:34:00;;;;;;;2.63;1.33;;;;;;;;;;4982778;28;20482;-74
2021/09/23 10:36:28;;;;;;;3.97;1.73;;;;;;;;;;4982255;28;20033;-73
2021/09/23 10:38:54;;;;;;;2.90;1.73;;;;;;;;;;4983290;28;20026;-73
2021/09/23 10:41:22;;;;;;;2.65;1.40;;;;;;;;;;4983331;28;20026;-73
2021/09/23 10:43:48;;;;;;;2.53;1.38;;;;;;;;;;4983805;28;20112;-73
2021/09/23 10:46:14;;;;;;;4.13;1.30;;;;;;;;;;4988025;28;20101;-73
2021/09/23 10:48:40;;;;;;;2.28;1.33;;;;;;;;;;4985584;28;20041;-73
2021/09/23 10:51:07;;;;;;;2.70;1.30;;;;;;;;;;4981241;28;20022;-73
2021/09/23 10:53:33;;;;;;;4.72;1.55;;;;;;;;;;4982331;28;20358;-73
2021/09/23 10:56:01;;;;;;;2.28;1.20;;;;;;;;;;4983630;28;20026;-73
2021/09/23 10:58:27;;;;;;;2.88;1.40;;;;;;;;;;4985077;28;20089;-73
2021/09/23 11:00:52;;;;;;;3.35;1.58;;;;;;;;;;4982403;28;20030;-73
2021/09/23 11:03:17;;;;;;;3.38;1.40;;;;;;;;;;4985470;28;20379;-73
2021/09/23 11:05:43;;;;;;;1.95;1.27;;;;;;;;;;4985950;28;20045;-73
2021/09/23 11:08:10;;;;;;;2.90;1.10;;;;;;;;;;4984685;28;20133;-73
2021/09/23 11:10:40;;;;;;;2.85;1.50;;;;;;;;;;4992491;28;20014;-73
2021/09/23 11:13:07;;;;;;;2.45;1.35;;;;;;;;;;4985845;28;20015;-73
2021/09/23 11:15:33;;;;;;;3.75;1.45;;;;;;;;;;4989640;28;20014;-73
2021/09/23 11:17:59;;;;;;;4.85;1.88;;;;;;;;;;4987550;28;20727;-73
2021/09/23 11:20:26;;;;;;;5.43;1.90;;;;;;;;;;4981726;28;20031;-73
2021/09/23 11:22:53;;;;;;;4.22;1.83;;;;;;;;;;4983378;28;20026;-74
2021/09/23 11:25:25;;;;;;;4.85;1.90;;;;;;;;;;4985682;28;20027;-74
2021/09/23 11:27:51;;;;;;;4.32;1.92;;;;;;;;;;4984937;28;20034;-73
2021/09/23 11:30:19;;;;;;;3.15;1.70;;;;;;;;;;4985204;28;20098;-74
2021/09/23 11:32:49;;;;;;;4.90;2.20;;;;;;;;;;4984383;28;20026;-73
2021/09/23 11:35:15;;;;;;;4.13;1.83;;;;;;;;;;4987079;28;20105;-74
2021/09/23 11:37:41;;;;;;;3.30;1.80;;;;;;;;;;4985947;28;20113;-73
2021/09/23 11:40:07;;;;;;;4.72;1.90;;;;;;;;;;4992250;28;20490;-73
2021/09/23 11:42:33;;;;;;;4.93;1.98;;;;;;;;;;4982318;28;20100;-74
2021/09/23 11:45:09;;;;;;;2.75;1.80;;;;;;;;;;5025459;28;20052;-74
2021/09/23 11:47:44;;;;;;;4.05;1.58;;;;;;;;;;4983351;28;20030;-73
2021/09/23 11:50:10;;;;;;;4.18;1.60;;;;;;;;;;4988629;28;20057;-74
2021/09/23 11:52:37;;;;;;;9.32;2.17;;;;;;;;;;4990489;28;20779;-74
2021/09/23 11:55:03;;;;;;;4.68;1.77;;;;;;;;;;4991658;28;20029;-74
2021/09/23 11:57:29;;;;;;;5.55;2.05;;;;;;;;;;4993161;28;20014;-74
2021/09/23 11:59:55;;;;;;;3.83;1.80;;;;;;;;;;5004186;28;20029;-74
2021/09/23 12:02:20;;;;;;;4.15;1.88;;;;;;;;;;4993553;28;20636;-74
2021/09/23 12:04:53;;;;;;;4.63;1.93;;;;;;;;;;4990061;28;20486;-75
2021/09/23 12:07:18;;;;;;;3.38;1.70;;;;;;;;;;4991633;28;20485;-74
2021/09/23 12:10:21;;;;;;;4.40;1.63;;;;;;;;;;4989952;28;20102;-73
2021/09/23 12:12:56;;;;;;;5.22;1.70;;;;;;;;;;5006223;28;20264;-74
2021/09/23 12:15:22;;;;;;;3.80;1.85;;;;;;;;;;4995896;28;20035;-74
2021/09/23 12:17:57;;;;;;;3.42;1.90;;;;;;;;;;4989384;28;20077;-74
2021/09/23 12:20:36;;;;;;;4.03;1.80;;;;;;;;;;4984667;28;20022;-74
2021/09/23 12:23:17;;;;;;;3.70;1.70;;;;;;;;;;4991425;28;20028;-74
2021/09/23 12:25:42;;;;;;;4.50;1.80;;;;;;;;;;4992200;28;20704;-73
2021/09/23 12:28:07;;;;;;;3.70;1.90;;;;;;;;;;4993765;28;20065;-74
2021/09/23 12:30:35;;;;;;;2.27;1.57;;;;;;;;;;4992136;28;20022;-75
2021/09/23 12:33:03;;;;;;;2.95;1.58;;;;;;;;;;4993060;28;20053;-75
2021/09/23 12:35:28;;;;;;;5.78;4.20;;;;;;;;;;4977042;28;20527;-74
2021/09/23 12:37:53;;;;;;;3.33;1.60;;;;;;;;;;4990509;28;20026;-74
2021/09/23 12:40:19;;;;;;;4.47;1.90;;;;;;;;;;4994418;28;20276;-75
2021/09/23 12:42:44;;;;;;;3.35;1.73;;;;;;;;;;5006590;28;20026;-74
2021/09/23 12:45:15;;;;;;;2.93;1.70;;;;;;;;;;4996476;28;20014;-74
2021/09/23 12:47:44;;;;;;;4.20;2.00;;;;;;;;;;4989034;28;20544;-74
2021/09/23 12:50:11;;;;;;;3.92;2.03;;;;;;;;;;4992130;28;20030;-74
2021/09/23 12:52:37;;;;;;;4.03;2.25;;;;;;;;;;4987042;28;20697;-74
2021/09/23 12:55:04;;;;;;;4.07;2.00;;;;;;;;;;4985638;28;20110;-74
2021/09/23 12:57:31;;;;;;;3.33;1.92;;;;;;;;;;4986063;28;20030;-74
2021/09/23 13:00:07;;;;;;;3.70;1.92;;;;;;;;;;4985912;28;20109;-74
2021/09/23 13:02:32;;;;;;;7.18;2.00;;;;;;;;;;4984553;28;20034;-75
2021/09/23 13:04:59;;;;;;;6.43;2.10;;;;;;;;;;4987729;28;20023;-74
2021/09/23 13:07:24;;;;;;;4.78;1.88;;;;;;;;;;4987209;28;20109;-74
2021/09/23 13:10:19;;;;;;;4.97;1.80;;;;;;;;;;4988138;28;20105;-74
2021/09/23 13:12:48;;;;;;;3.25;1.85;;;;;;;;;;4980302;28;20255;-74
2021/09/23 13:15:19;;;;;;;5.33;2.10;;;;;;;;;;4993060;28;20129;-77
2021/09/23 13:17:44;;;;;;;;;;;;;;;;;;5025317;28;20426;-72
2021/09/23 13:20:09;;;;;;;3.63;1.90;;;;;;;;;;4989500;28;20363;-74
2021/09/23 13:22:38;;;;;;;3.97;2.08;;;;;;;;;;4989580;28;20057;-73
2021/09/23 13:25:03;;;;;;;4.03;1.85;;;;;;;;;;4990903;28;20568;-73
2021/09/23 13:27:29;;;;;;;4.85;1.98;;;;;;;;;;4989693;28;20132;-73
2021/09/23 13:29:54;;;;;;;4.53;1.90;;;;;;;;;;4990635;28;20094;-74
2021/09/23 13:32:19;;;;;;;5.43;2.00;;;;;;;;;;4997559;28;20329;-73
2021/09/23 13:34:44;;;;;;;2.93;1.60;;;;;;;;;;5001044;28;20050;-73
2021/09/23 13:37:10;;;;;;;3.58;2.00;;;;;;;;;;5004008;28;20467;-74
2021/09/23 13:39:35;;;;;;;5.63;2.13;;;;;;;;;;4994983;28;20022;-73
2021/09/23 13:42:00;;;;;;;3.53;2.20;;;;;;;;;;5000184;28;20086;-73
2021/09/23 13:44:25;;;;;;;5.20;2.13;;;;;;;;;;4991138;28;20072;-74
2021/09/23 13:46:50;;;;;;;3.23;1.93;;;;;;;;;;4994907;28;20018;-73
2021/09/23 13:49:16;;;;;;;3.20;1.90;;;;;;;;;;4992605;28;20268;-73
2021/09/23 13:51:43;;;;;;;3.87;2.03;;;;;;;;;;4992119;28;20244;-73
2021/09/23 13:54:08;;;;;;;4.85;2.10;;;;;;;;;;4990081;28;20778;-74
2021/09/23 13:56:33;;;;;;;3.38;1.83;;;;;;;;;;4986943;28;20026;-73
2021/09/23 13:58:59;;;;;;;3.97;1.73;;;;;;;;;;4988190;28;20072;-73
2021/09/23 14:01:25;;;;;;;4.27;2.23;;;;;;;;;;4988286;28;20453;-73
2021/09/23 14:03:50;;;;;;;3.75;1.48;;;;;;;;;;4992519;28;20494;-74
2021/09/23 14:06:16;;;;;;;3.73;2.20;;;;;;;;;;4992662;28;20106;-73
2021/09/23 14:08:42;;;;;;;3.05;1.70;;;;;;;;;;4987051;28;20398;-74
2021/09/23 14:11:07;;;;;;;5.97;1.90;;;;;;;;;;4984052;28;20105;-74
2021/09/23 14:13:32;;;;;;;8.70;1.70;;;;;;;;;;4985955;28;20018;-74
2021/09/23 14:15:59;;;;;;;3.40;1.85;;;;;;;;;;4985088;28;20496;-74
2021/09/23 14:18:25;;;;;;;3.25;1.67;;;;;;;;;;4983970;28;20596;-73
2021/09/23 14:20:50;;;;;;;4.95;1.70;;;;;;;;;;4983327;28;20019;-73
2021/09/23 14:23:15;;;;;;;2.67;1.60;;;;;;;;;;4982833;28;20050;-74
2021/09/23 14:25:41;;;;;;;3.42;1.70;;;;;;;;;;4999527;28;20010;-73
2021/09/23 14:29:26;;;;;;;2.78;1.48;;;;;;;23.17;31.77;97579.19;5124829;27;20384;-79
2021/09/23 14:31:51;;;;;;;5.53;1.92;;;;;;;22.93;32.74;97580.56;5086726;28;20054;-81
2021/09/23 14:34:17;;;;;;;6.05;1.75;;;;;;;-148.22;100.00;64452.44;5100669;28;20031;-68